createdAt,value
2022-11-30T00:02:34.161Z,5.40
2022-11-30T00:05:22.989Z,5.40
2022-11-30T00:08:11.658Z,5.40
2022-11-30T00:11:01.764Z,5.40
2022-11-30T00:13:51.078Z,5.50
2022-11-30T00:16:39.738Z,5.40
2022-11-30T00:19:28.415Z,5.40
2022-11-30T00:22:17.058Z,5.40
2022-11-30T00:25:06.323Z,5.40
2022-11-30T00:27:56.477Z,5.50
2022-11-30T00:30:45.138Z,5.50
2022-11-30T00:33:35.288Z,5.50
2022-11-30T00:36:24.349Z,5.40
2022-11-30T00:39:13.181Z,5.50
2022-11-30T00:42:01.809Z,5.50
2022-11-30T00:44:51.873Z,5.40
2022-11-30T00:47:40.524Z,5.40
2022-11-30T00:50:29.182Z,5.40
2022-11-30T00:53:18.004Z,5.40
2022-11-30T00:56:07.842Z,5.40
2022-11-30T00:58:56.481Z,5.40
2022-11-30T01:01:46.661Z,5.40
2022-11-30T01:04:35.404Z,5.40
2022-11-30T01:07:24.075Z,5.40
2022-11-30T01:10:12.982Z,5.40
2022-11-30T01:13:01.792Z,5.40
2022-11-30T01:15:50.675Z,5.40
2022-11-30T01:18:41.101Z,5.40
2022-11-30T01:21:30.585Z,5.40
2022-11-30T01:24:19.260Z,5.40
2022-11-30T01:27:07.888Z,5.40
2022-11-30T01:29:56.554Z,5.40
2022-11-30T01:32:45.236Z,5.40
2022-11-30T01:35:35.325Z,5.40
2022-11-30T01:38:24.000Z,5.40
2022-11-30T01:41:15.310Z,5.40
2022-11-30T01:44:36.410Z,5.40
2022-11-30T01:47:31.741Z,5.40
2022-11-30T01:50:24.369Z,5.40
2022-11-30T01:53:14.671Z,5.40
2022-11-30T01:56:03.527Z,5.40
2022-11-30T01:58:52.387Z,5.40
2022-11-30T02:01:41.204Z,5.40
2022-11-30T02:04:32.880Z,5.40
2022-11-30T02:07:21.681Z,5.40
2022-11-30T02:10:18.212Z,5.40
2022-11-30T02:13:30.227Z,5.40
2022-11-30T02:16:27.505Z,5.40
2022-11-30T02:19:45.982Z,5.40
2022-11-30T02:22:47.864Z,5.40
2022-11-30T02:25:44.399Z,5.40
2022-11-30T02:28:47.451Z,5.40
2022-11-30T02:31:44.477Z,5.40
2022-11-30T02:34:36.333Z,5.40
2022-11-30T02:37:26.064Z,5.30
2022-11-30T02:40:17.312Z,5.30
2022-11-30T02:43:07.349Z,5.30
2022-11-30T02:46:03.253Z,5.40
2022-11-30T02:49:00.232Z,5.40
2022-11-30T02:51:50.746Z,5.40
2022-11-30T02:54:39.704Z,5.40
2022-11-30T02:57:28.449Z,5.40
2022-11-30T03:00:18.132Z,5.40
2022-11-30T03:03:08.243Z,5.40
2022-11-30T03:05:57.004Z,5.40
2022-11-30T03:08:45.644Z,5.40
2022-11-30T03:11:35.309Z,5.40
2022-11-30T03:14:23.953Z,5.40
2022-11-30T03:17:12.646Z,5.40
2022-11-30T03:20:02.711Z,5.40
2022-11-30T03:22:51.366Z,5.40
2022-11-30T03:25:40.069Z,5.40
2022-11-30T03:28:28.769Z,5.40
2022-11-30T03:31:17.607Z,5.40
2022-11-30T03:34:06.603Z,5.40
2022-11-30T03:36:57.381Z,5.40
2022-11-30T03:39:46.023Z,5.30
2022-11-30T03:42:34.673Z,5.30
2022-11-30T03:45:23.330Z,5.40
2022-11-30T03:48:12.001Z,5.40
2022-11-30T03:51:00.856Z,5.40
2022-11-30T03:53:50.834Z,5.40
2022-11-30T03:56:39.746Z,5.40
2022-11-30T03:59:28.416Z,5.40
2022-11-30T04:02:17.071Z,5.40
2022-11-30T04:05:06.050Z,5.30
2022-11-30T04:07:54.756Z,5.30
2022-11-30T04:10:47.576Z,5.30
2022-11-30T04:13:38.177Z,5.40
2022-11-30T04:16:26.878Z,5.40
2022-11-30T04:19:15.544Z,5.40
2022-11-30T04:22:04.226Z,5.40
2022-11-30T04:24:52.853Z,5.40
2022-11-30T04:27:42.947Z,5.40
2022-11-30T04:30:31.626Z,5.40
2022-11-30T04:33:20.293Z,5.40
2022-11-30T04:36:16.994Z,5.40
2022-11-30T04:39:05.765Z,5.50
2022-11-30T04:41:54.446Z,5.50
2022-11-30T04:44:44.702Z,5.50
2022-11-30T04:47:33.605Z,5.50
2022-11-30T04:50:22.248Z,5.50
2022-11-30T04:53:10.990Z,5.50
2022-11-30T04:55:59.652Z,5.40
2022-11-30T04:58:48.339Z,5.40
2022-11-30T05:01:38.523Z,5.40
2022-11-30T05:04:27.388Z,5.40
2022-11-30T05:07:16.136Z,5.40
2022-11-30T05:10:05.362Z,5.40
2022-11-30T05:12:54.191Z,5.40
2022-11-30T05:15:42.827Z,5.40
2022-11-30T05:18:33.670Z,5.40
2022-11-30T05:21:22.330Z,5.40
2022-11-30T05:24:11.519Z,5.40
2022-11-30T05:27:00.717Z,5.50
2022-11-30T05:29:49.374Z,5.40
2022-11-30T05:32:38.130Z,5.40
2022-11-30T05:35:28.239Z,5.40
2022-11-30T05:38:16.916Z,5.40
2022-11-30T05:41:05.621Z,5.40
2022-11-30T05:43:54.306Z,5.40
2022-11-30T05:46:42.976Z,5.40
2022-11-30T05:49:31.707Z,5.50
2022-11-30T05:52:21.802Z,5.50
2022-11-30T05:55:10.772Z,5.50
2022-11-30T05:57:59.568Z,5.50
2022-11-30T06:00:48.210Z,5.50
2022-11-30T06:03:37.549Z,5.50
2022-11-30T06:06:26.185Z,5.50
2022-11-30T06:09:16.355Z,5.50
2022-11-30T06:12:05.164Z,5.50
2022-11-30T06:14:54.021Z,5.40
2022-11-30T06:17:42.673Z,5.50
2022-11-30T06:20:31.365Z,5.50
2022-11-30T06:23:20.183Z,5.50
2022-11-30T06:26:12.944Z,5.50
2022-11-30T06:29:01.625Z,5.50
2022-11-30T06:31:50.317Z,5.40
2022-11-30T06:34:39.030Z,5.50
2022-11-30T06:37:27.690Z,5.50
2022-11-30T06:40:17.217Z,5.50
2022-11-30T06:43:07.389Z,5.50
2022-11-30T06:45:56.051Z,5.50
2022-11-30T06:48:44.882Z,5.50
2022-11-30T06:51:34.332Z,5.50
2022-11-30T06:54:22.993Z,5.50
2022-11-30T06:57:11.633Z,5.50
2022-11-30T07:00:01.699Z,5.50
2022-11-30T07:02:50.374Z,5.50
2022-11-30T07:05:43.929Z,5.50
2022-11-30T07:08:32.654Z,5.50
2022-11-30T07:11:21.288Z,5.50
2022-11-30T07:14:09.957Z,5.50
2022-11-30T07:17:00.010Z,5.50
2022-11-30T07:19:48.747Z,5.50
2022-11-30T07:22:37.472Z,5.60
2022-11-30T07:25:43.542Z,5.60
2022-11-30T07:28:33.064Z,5.50
2022-11-30T07:31:24.219Z,5.50
2022-11-30T07:34:14.297Z,5.50
2022-11-30T07:37:02.940Z,5.50
2022-11-30T07:39:51.602Z,5.50
2022-11-30T07:42:40.239Z,5.50
2022-11-30T07:45:28.880Z,5.50
2022-11-30T07:48:17.551Z,5.60
2022-11-30T07:51:09.040Z,5.60
2022-11-30T07:53:58.266Z,5.60
2022-11-30T07:56:46.924Z,5.60
2022-11-30T07:59:35.576Z,5.60
2022-11-30T08:02:24.453Z,5.60
2022-11-30T08:05:13.210Z,5.60
2022-11-30T08:08:03.413Z,5.60
2022-11-30T08:10:52.427Z,5.60
2022-11-30T08:13:41.309Z,5.60
2022-11-30T08:16:31.585Z,5.60
2022-11-30T08:19:20.499Z,5.60
2022-11-30T08:22:09.157Z,5.60
2022-11-30T08:24:59.222Z,5.60
2022-11-30T08:27:47.899Z,5.60
2022-11-30T08:30:36.643Z,5.60
2022-11-30T08:33:28.260Z,5.60
2022-11-30T08:36:21.991Z,5.60
2022-11-30T08:39:13.752Z,5.70
2022-11-30T08:42:03.795Z,5.70
2022-11-30T08:44:52.463Z,5.70
2022-11-30T08:47:41.113Z,5.70
2022-11-30T08:50:29.771Z,5.70
2022-11-30T08:53:18.419Z,5.70
2022-11-30T08:56:09.178Z,5.70
2022-11-30T08:58:59.262Z,5.70
2022-11-30T09:01:47.887Z,5.70
2022-11-30T09:04:36.592Z,5.70
2022-11-30T09:07:25.357Z,5.70
2022-11-30T09:10:14.464Z,5.70
2022-11-30T09:13:03.360Z,5.80
2022-11-30T09:15:57.430Z,5.80
2022-11-30T09:18:46.293Z,5.80
2022-11-30T09:21:35.083Z,5.80
2022-11-30T09:24:23.773Z,5.90
2022-11-30T09:27:12.447Z,5.90
2022-11-30T09:30:01.135Z,5.90
2022-11-30T09:32:51.156Z,5.90
2022-11-30T09:35:39.810Z,5.90
2022-11-30T09:38:28.844Z,5.90
2022-11-30T09:41:39.409Z,6.00
2022-11-30T09:44:38.757Z,6.00
2022-11-30T09:47:39.918Z,6.00
2022-11-30T09:50:33.429Z,6.10
2022-11-30T09:53:29.977Z,6.20
2022-11-30T09:56:25.448Z,6.20
2022-11-30T09:59:20.170Z,6.20
2022-11-30T10:02:18.003Z,6.20
2022-11-30T10:05:14.657Z,6.30
2022-11-30T10:08:33.066Z,6.40
2022-11-30T10:11:44.905Z,6.40
2022-11-30T10:15:00.463Z,6.50
2022-11-30T10:17:57.240Z,6.50
2022-11-30T10:20:56.093Z,6.50
2022-11-30T10:24:08.552Z,6.50
2022-11-30T10:26:59.396Z,6.50
2022-11-30T10:29:48.117Z,6.50
2022-11-30T10:32:42.482Z,6.40
2022-11-30T10:35:38.248Z,6.40
2022-11-30T10:38:31.438Z,6.40
2022-11-30T10:41:26.379Z,6.30
2022-11-30T10:44:20.459Z,6.20
2022-11-30T10:47:17.769Z,6.30
2022-11-30T10:50:08.111Z,6.30
2022-11-30T10:52:59.730Z,6.30
2022-11-30T10:55:55.167Z,6.30
2022-11-30T10:58:54.731Z,6.30
2022-11-30T11:01:44.304Z,6.30
2022-11-30T11:04:33.111Z,6.30
2022-11-30T11:07:21.942Z,6.30
2022-11-30T11:10:16.712Z,6.30
2022-11-30T11:13:06.569Z,6.30
2022-11-30T11:16:00.710Z,6.20
2022-11-30T11:18:54.768Z,6.20
2022-11-30T11:21:50.196Z,6.20
2022-11-30T11:24:38.865Z,6.20
2022-11-30T11:27:32.768Z,6.10
2022-11-30T11:30:30.667Z,6.10
2022-11-30T11:33:23.959Z,6.10
2022-11-30T11:36:16.904Z,6.10
2022-11-30T11:39:26.790Z,6.10
2022-11-30T11:42:22.424Z,6.10
2022-11-30T11:45:18.502Z,6.00
2022-11-30T11:48:26.080Z,6.00
2022-11-30T11:51:31.390Z,6.00
2022-11-30T11:54:27.206Z,6.10
2022-11-30T11:57:18.578Z,6.00
2022-11-30T12:00:15.838Z,6.00
2022-11-30T12:03:14.844Z,6.10
2022-11-30T12:06:08.649Z,6.10
2022-11-30T12:09:03.742Z,6.10
2022-11-30T12:11:52.467Z,6.20
2022-11-30T12:14:41.361Z,6.10
2022-11-30T12:17:51.881Z,6.10
2022-11-30T12:20:51.767Z,6.20
2022-11-30T12:23:51.342Z,6.10
2022-11-30T12:26:46.911Z,6.10
2022-11-30T12:29:43.599Z,6.20
2022-11-30T12:32:49.968Z,6.20
2022-11-30T12:35:47.794Z,6.10
2022-11-30T12:38:48.518Z,6.10
2022-11-30T12:41:43.640Z,6.10
2022-11-30T12:44:43.124Z,6.10
2022-11-30T12:47:47.970Z,6.10
2022-11-30T12:50:46.636Z,6.10
2022-11-30T12:53:40.912Z,6.00
2022-11-30T12:56:46.202Z,6.10
2022-11-30T12:59:49.574Z,6.10
2022-11-30T13:03:14.278Z,6.10
2022-11-30T13:06:10.806Z,6.10
2022-11-30T13:09:05.531Z,6.10
2022-11-30T13:11:59.424Z,6.10
2022-11-30T13:14:50.923Z,6.10
2022-11-30T13:17:40.138Z,6.10
2022-11-30T13:20:38.866Z,6.10
2022-11-30T13:23:34.446Z,6.10
2022-11-30T13:26:30.569Z,6.10
2022-11-30T13:29:44.808Z,6.10
2022-11-30T13:35:54.896Z,6.10
2022-11-30T13:38:43.596Z,6.10
2022-11-30T13:41:33.099Z,6.10
2022-11-30T13:44:31.827Z,6.00
2022-11-30T13:47:30.296Z,5.90
2022-11-30T13:50:33.607Z,5.90
2022-11-30T13:53:28.537Z,5.80
2022-11-30T13:56:36.506Z,5.70
2022-11-30T13:59:45.907Z,5.70
2022-11-30T14:03:16.724Z,5.70
2022-11-30T14:06:45.929Z,5.70
2022-11-30T14:09:57.755Z,5.60
2022-11-30T14:12:59.034Z,5.60
2022-11-30T14:15:57.617Z,5.50
2022-11-30T14:18:48.082Z,5.40
2022-11-30T14:21:38.993Z,5.40
2022-11-30T14:24:28.045Z,5.40
2022-11-30T14:27:21.445Z,5.40
2022-11-30T14:30:20.051Z,5.50
2022-11-30T14:33:19.714Z,5.50
2022-11-30T14:36:10.042Z,5.40
2022-11-30T14:39:00.104Z,5.40
2022-11-30T14:41:48.762Z,5.40
2022-11-30T14:44:40.994Z,5.30
2022-11-30T14:47:33.595Z,5.40
2022-11-30T14:50:25.512Z,5.40
2022-11-30T14:53:24.906Z,5.40
2022-11-30T14:56:23.852Z,5.40
2022-11-30T14:59:32.158Z,5.30
2022-11-30T15:02:30.794Z,5.40
2022-11-30T15:05:26.864Z,5.40
2022-11-30T15:08:17.760Z,5.40
2022-11-30T15:11:08.166Z,5.40
2022-11-30T15:14:08.285Z,5.40
2022-11-30T15:16:58.363Z,5.40
2022-11-30T15:19:49.792Z,5.30
2022-11-30T15:22:38.622Z,5.30
2022-11-30T15:25:34.470Z,5.30
2022-11-30T15:28:25.920Z,5.30
2022-11-30T15:31:18.121Z,5.40
2022-11-30T15:34:07.941Z,5.40
2022-11-30T15:36:57.399Z,5.40
2022-11-30T15:39:50.025Z,5.40
2022-11-30T15:42:41.436Z,5.40
2022-11-30T15:45:35.437Z,5.40
2022-11-30T15:48:33.940Z,5.40
2022-11-30T15:51:26.330Z,5.30
2022-11-30T15:54:15.593Z,5.30
2022-11-30T15:57:08.839Z,5.40
2022-11-30T16:00:09.079Z,5.30
2022-11-30T16:03:09.362Z,5.30
2022-11-30T16:06:01.380Z,5.40
2022-11-30T16:08:51.303Z,5.30
2022-11-30T16:11:40.010Z,5.40
2022-11-30T16:14:29.081Z,5.40
2022-11-30T16:17:17.824Z,5.30
2022-11-30T16:20:07.645Z,5.30
2022-11-30T16:23:02.506Z,5.30
2022-11-30T16:25:54.200Z,5.30
2022-11-30T16:28:42.884Z,5.30
2022-11-30T16:31:31.747Z,5.40
2022-11-30T16:34:20.460Z,5.30
2022-11-30T16:37:11.568Z,5.40
2022-11-30T16:40:01.601Z,5.40
2022-11-30T16:42:51.539Z,5.40
2022-11-30T16:45:41.770Z,5.40
2022-11-30T16:48:30.955Z,5.40
2022-11-30T16:51:22.471Z,5.30
2022-11-30T16:54:13.720Z,5.30
2022-11-30T16:57:03.819Z,5.30
2022-11-30T16:59:53.323Z,5.30
2022-11-30T17:02:46.237Z,5.30
2022-11-30T17:05:35.557Z,5.30
2022-11-30T17:08:24.313Z,5.20
2022-11-30T17:11:18.308Z,5.20
2022-11-30T17:14:08.706Z,5.20
2022-11-30T17:16:57.459Z,5.30
2022-11-30T17:19:46.144Z,5.30
2022-11-30T17:22:37.722Z,5.30
2022-11-30T17:25:26.476Z,5.30
2022-11-30T17:28:15.146Z,5.20
2022-11-30T17:31:05.955Z,5.20
2022-11-30T17:33:54.625Z,5.20
2022-11-30T17:36:43.322Z,5.20
2022-11-30T17:39:32.081Z,5.10
2022-11-30T17:42:20.756Z,5.10
2022-11-30T17:45:10.408Z,5.20
2022-11-30T17:48:00.739Z,5.10
2022-11-30T17:50:52.358Z,5.10
2022-11-30T17:53:41.346Z,5.10
2022-11-30T17:56:30.093Z,5.10
2022-11-30T17:59:18.858Z,5.10
2022-11-30T18:02:07.563Z,5.10
2022-11-30T18:04:57.663Z,5.10
2022-11-30T18:07:46.368Z,5.10
2022-11-30T18:10:35.016Z,5.10
2022-11-30T18:13:23.775Z,5.00
2022-11-30T18:16:14.758Z,5.00
2022-11-30T18:19:08.444Z,5.00
2022-11-30T18:21:58.453Z,5.00
2022-11-30T18:24:47.365Z,5.00
2022-11-30T18:27:36.173Z,5.00
2022-11-30T18:30:24.838Z,5.00
2022-11-30T18:33:13.481Z,5.00
2022-11-30T18:36:03.232Z,5.00
2022-11-30T18:38:53.310Z,5.00
2022-11-30T18:41:42.108Z,5.00
2022-11-30T18:44:30.854Z,5.00
2022-11-30T18:47:19.514Z,5.00
2022-11-30T18:50:09.192Z,5.00
2022-11-30T18:52:57.927Z,5.00
2022-11-30T18:55:47.985Z,4.90
2022-11-30T18:58:36.629Z,4.90
2022-11-30T19:01:26.758Z,4.90
2022-11-30T19:04:15.659Z,4.90
2022-11-30T19:07:04.276Z,4.90
2022-11-30T19:09:53.022Z,4.90
2022-11-30T19:12:43.079Z,4.90
2022-11-30T19:15:31.799Z,4.90
2022-11-30T19:18:23.207Z,4.90
2022-11-30T19:21:14.157Z,4.90
2022-11-30T19:24:02.948Z,4.80
2022-11-30T19:26:51.823Z,4.80
2022-11-30T19:29:41.919Z,4.80
2022-11-30T19:32:31.990Z,4.90
2022-11-30T19:35:24.448Z,4.90
2022-11-30T19:38:14.883Z,4.90
2022-11-30T19:41:07.396Z,4.80
2022-11-30T19:44:02.733Z,4.80
2022-11-30T19:46:55.573Z,4.80
2022-11-30T19:49:45.771Z,4.80
2022-11-30T19:52:34.429Z,4.80
2022-11-30T19:55:23.115Z,4.80
2022-11-30T19:58:11.768Z,4.90
2022-11-30T20:01:00.563Z,4.80
2022-11-30T20:03:51.178Z,4.80
2022-11-30T20:06:40.328Z,4.90
2022-11-30T20:09:29.008Z,4.90
2022-11-30T20:12:17.752Z,4.90
2022-11-30T20:15:07.169Z,4.90
2022-11-30T20:17:55.864Z,4.90
2022-11-30T20:20:45.957Z,4.80
2022-11-30T20:23:36.262Z,4.90
2022-11-30T20:26:27.603Z,5.00
2022-11-30T20:29:18.164Z,4.90
2022-11-30T20:32:07.422Z,5.00
2022-11-30T20:34:56.072Z,4.90
2022-11-30T20:37:46.106Z,5.00
2022-11-30T20:40:37.712Z,4.90
2022-11-30T20:43:26.797Z,4.90
2022-11-30T20:46:17.435Z,4.90
2022-11-30T20:49:14.780Z,4.90
2022-11-30T20:52:03.493Z,4.90
2022-11-30T20:54:53.589Z,4.90
2022-11-30T20:57:42.212Z,4.90
2022-11-30T21:00:30.945Z,4.90
2022-11-30T21:03:20.257Z,4.90
2022-11-30T21:06:11.114Z,5.00
2022-11-30T21:09:00.244Z,5.00
2022-11-30T21:11:50.474Z,4.90
2022-11-30T21:14:39.108Z,5.00
2022-11-30T21:17:27.746Z,5.00
2022-11-30T21:20:16.521Z,5.00
2022-11-30T21:23:05.161Z,4.90
2022-11-30T21:25:53.807Z,4.90
2022-11-30T21:28:44.351Z,4.90
2022-11-30T21:31:33.414Z,5.00
2022-11-30T21:34:22.167Z,4.90
2022-11-30T21:37:10.775Z,5.00
2022-11-30T21:39:59.616Z,5.00
2022-11-30T21:42:48.227Z,5.00
2022-11-30T21:45:38.309Z,5.00
2022-11-30T21:48:27.489Z,5.10
2022-11-30T21:51:17.784Z,5.10
2022-11-30T21:54:08.749Z,5.00
2022-11-30T21:56:57.442Z,5.10
2022-11-30T21:59:46.410Z,5.00
2022-11-30T22:02:37.449Z,5.00
2022-11-30T22:05:26.108Z,5.00
2022-11-30T22:08:16.066Z,5.00
2022-11-30T22:11:06.284Z,5.00
2022-11-30T22:13:56.431Z,5.00
2022-11-30T22:16:45.765Z,5.00
2022-11-30T22:19:36.218Z,5.10
2022-11-30T22:22:25.934Z,5.10
2022-11-30T22:25:14.643Z,5.00
2022-11-30T22:28:03.262Z,5.00
2022-11-30T22:30:51.932Z,5.10
2022-11-30T22:33:42.444Z,5.10
2022-11-30T22:36:34.296Z,5.10
2022-11-30T22:39:23.679Z,5.10
2022-11-30T22:42:12.416Z,5.00
2022-11-30T22:45:01.025Z,5.10
2022-11-30T22:47:49.691Z,5.10
2022-11-30T22:50:38.328Z,5.10
2022-11-30T22:53:28.358Z,5.20
2022-11-30T22:56:18.916Z,5.20
2022-11-30T22:59:07.650Z,5.20
2022-11-30T23:01:56.339Z,5.20
2022-11-30T23:04:44.960Z,5.20
2022-11-30T23:07:33.702Z,5.20
2022-11-30T23:10:23.804Z,5.20
2022-11-30T23:13:12.508Z,5.20
2022-11-30T23:16:01.540Z,5.20
2022-11-30T23:18:51.824Z,5.20
2022-11-30T23:21:44.161Z,5.20
2022-11-30T23:24:32.851Z,5.20
2022-11-30T23:27:24.211Z,5.10
2022-11-30T23:30:13.491Z,5.10
2022-11-30T23:33:02.149Z,5.10
2022-11-30T23:35:50.788Z,5.10
2022-11-30T23:38:40.799Z,5.20
2022-11-30T23:41:29.727Z,5.20
2022-11-30T23:44:19.777Z,5.20
2022-11-30T23:47:08.470Z,5.20
2022-11-30T23:49:57.110Z,5.20
2022-11-30T23:52:45.789Z,5.20
2022-11-30T23:55:36.290Z,5.10
2022-11-30T23:58:25.456Z,5.10
